createdAt,value
2019-04-06T00:00:19.290Z,2.91
2019-04-06T00:01:19.277Z,2.61
2019-04-06T00:02:19.277Z,2.61
2019-04-06T00:03:19.263Z,2.61
2019-04-06T00:04:19.257Z,3.00
2019-04-06T00:05:19.255Z,2.42
2019-04-06T00:06:19.242Z,2.61
2019-04-06T00:07:19.239Z,2.91
2019-04-06T00:08:19.228Z,2.71
2019-04-06T00:09:19.225Z,2.71
2019-04-06T00:10:19.280Z,2.91
2019-04-06T00:11:19.213Z,2.61
2019-04-06T00:12:19.206Z,2.91
2019-04-06T00:13:19.202Z,2.91
2019-04-06T00:14:19.189Z,2.61
2019-04-06T00:15:19.179Z,2.91
2019-04-06T00:16:19.170Z,2.61
2019-04-06T00:17:19.167Z,2.51
2019-04-06T00:18:19.165Z,2.51
2019-04-06T00:19:19.153Z,2.61
2019-04-06T00:20:19.154Z,2.81
2019-04-06T00:21:19.146Z,2.61
2019-04-06T00:22:19.127Z,2.61
2019-04-06T00:23:19.143Z,2.51
2019-04-06T00:24:19.114Z,2.51
2019-04-06T00:25:19.107Z,2.61
2019-04-06T00:26:19.102Z,2.91
2019-04-06T00:27:19.089Z,2.91
2019-04-06T00:28:19.124Z,2.61
2019-04-06T00:29:19.124Z,2.51
2019-04-06T00:30:19.073Z,2.81
2019-04-06T00:31:19.066Z,2.71
2019-04-06T00:32:19.058Z,2.71
2019-04-06T00:33:19.054Z,2.81
2019-04-06T00:34:19.042Z,2.81
2019-04-06T00:35:19.040Z,2.71
2019-04-06T00:36:19.033Z,2.81
2019-04-06T00:37:19.020Z,2.71
2019-04-06T00:38:19.013Z,2.71
2019-04-06T00:39:19.008Z,2.71
2019-04-06T00:40:18.996Z,2.71
2019-04-06T00:41:18.993Z,2.71
2019-04-06T00:42:18.979Z,2.71
2019-04-06T00:43:18.974Z,2.71
2019-04-06T00:44:18.965Z,2.71
2019-04-06T00:45:18.966Z,2.71
2019-04-06T00:46:18.958Z,2.91
2019-04-06T00:47:18.963Z,2.71
2019-04-06T00:48:18.949Z,2.91
2019-04-06T00:49:18.936Z,2.91
2019-04-06T00:50:18.933Z,2.71
2019-04-06T00:51:18.917Z,2.51
2019-04-06T00:52:18.913Z,2.81
2019-04-06T00:53:18.908Z,2.81
2019-04-06T00:54:18.897Z,2.81
2019-04-06T00:55:18.884Z,2.61
2019-04-06T00:56:18.891Z,2.71
2019-04-06T00:57:18.874Z,2.61
2019-04-06T00:58:18.867Z,2.51
2019-04-06T00:59:18.858Z,2.33
2019-04-06T01:00:18.856Z,2.42
2019-04-06T01:01:18.845Z,2.42
2019-04-06T01:02:18.841Z,2.33
2019-04-06T01:03:18.840Z,2.61
2019-04-06T01:04:18.837Z,2.42
2019-04-06T01:05:18.823Z,2.51
2019-04-06T01:06:18.818Z,2.42
2019-04-06T01:07:18.803Z,2.42
2019-04-06T01:08:18.793Z,2.33
2019-04-06T01:09:18.905Z,2.42
2019-04-06T01:10:18.778Z,2.42
2019-04-06T01:11:18.778Z,2.51
2019-04-06T01:12:18.766Z,2.51
2019-04-06T01:13:18.758Z,2.42
2019-04-06T01:14:18.757Z,2.42
2019-04-06T01:15:18.741Z,2.42
2019-04-06T01:16:18.739Z,2.42
2019-04-06T01:17:18.737Z,2.51
2019-04-06T01:18:18.726Z,2.61
2019-04-06T01:19:18.712Z,2.42
2019-04-06T01:20:18.704Z,2.61
2019-04-06T01:21:18.734Z,2.61
2019-04-06T01:22:18.698Z,2.33
2019-04-06T01:23:18.691Z,2.61
2019-04-06T01:24:18.675Z,2.61
2019-04-06T01:25:18.721Z,2.61
2019-04-06T01:26:18.670Z,2.61
2019-04-06T01:27:18.658Z,2.42
2019-04-06T01:28:18.668Z,2.61
2019-04-06T01:29:18.648Z,2.61
2019-04-06T01:30:18.628Z,2.51
2019-04-06T01:31:18.626Z,2.61
2019-04-06T01:32:18.625Z,2.61
2019-04-06T01:33:18.608Z,2.61
2019-04-06T01:34:18.612Z,2.33
2019-04-06T01:35:18.604Z,2.13
2019-04-06T01:36:18.607Z,2.33
2019-04-06T01:37:18.590Z,2.33
2019-04-06T01:38:18.576Z,2.23
2019-04-06T01:39:18.568Z,2.33
2019-04-06T01:40:18.556Z,2.23
2019-04-06T01:41:18.554Z,2.42
2019-04-06T01:42:18.620Z,2.33
2019-04-06T01:43:18.540Z,2.33
2019-04-06T01:44:18.530Z,2.33
2019-04-06T01:45:18.542Z,2.42
2019-04-06T01:46:18.530Z,2.42
2019-04-06T01:47:18.515Z,2.23
2019-04-06T01:48:18.526Z,2.42
2019-04-06T01:49:18.547Z,2.42
2019-04-06T01:50:18.506Z,2.42
2019-04-06T01:51:18.481Z,2.23
2019-04-06T01:52:18.481Z,2.42
2019-04-06T01:53:18.473Z,2.33
2019-04-06T01:54:18.458Z,2.42
2019-04-06T01:55:18.458Z,2.33
2019-04-06T01:56:19.107Z,2.42
2019-04-06T01:57:18.447Z,2.33
2019-04-06T01:58:18.436Z,2.33
2019-04-06T01:59:18.431Z,2.42
2019-04-06T02:00:18.424Z,2.33
2019-04-06T02:01:18.413Z,2.42
2019-04-06T02:02:18.403Z,2.42
2019-04-06T02:03:18.390Z,2.33
2019-04-06T02:04:18.392Z,2.23
2019-04-06T02:05:18.380Z,2.33
2019-04-06T02:06:18.373Z,2.33
2019-04-06T02:07:18.370Z,2.33
2019-04-06T02:08:18.366Z,2.42
2019-04-06T02:09:18.351Z,2.33
2019-04-06T02:10:18.345Z,2.33
2019-04-06T02:11:18.341Z,2.23
2019-04-06T02:12:18.349Z,2.33
2019-04-06T02:13:18.326Z,2.33
2019-04-06T02:14:18.348Z,2.33
2019-04-06T02:15:18.310Z,2.33
2019-04-06T02:16:18.317Z,2.33
2019-04-06T02:17:18.288Z,2.33
2019-04-06T02:18:18.290Z,2.33
2019-04-06T02:19:18.284Z,2.33
2019-04-06T02:20:18.226Z,2.33
2019-04-06T02:21:18.264Z,2.61
2019-04-06T02:22:18.249Z,2.33
2019-04-06T02:23:18.253Z,2.33
2019-04-06T02:24:18.251Z,2.33
2019-04-06T02:25:18.237Z,2.33
2019-04-06T02:26:29.061Z,2.42
2019-04-06T02:27:18.316Z,2.33
2019-04-06T02:28:18.206Z,2.33
2019-04-06T02:29:18.209Z,2.23
2019-04-06T02:30:18.212Z,2.33
2019-04-06T02:31:18.192Z,2.42
2019-04-06T02:32:18.188Z,2.42
2019-04-06T02:33:18.173Z,2.51
2019-04-06T02:34:18.268Z,2.33
2019-04-06T02:35:18.181Z,2.71
2019-04-06T02:36:18.169Z,2.33
2019-04-06T02:37:18.143Z,2.61
2019-04-06T02:38:18.149Z,2.42
2019-04-06T02:39:18.266Z,2.42
2019-04-06T02:40:18.134Z,2.42
2019-04-06T02:41:18.120Z,2.42
2019-04-06T02:42:18.124Z,2.33
2019-04-06T02:43:18.108Z,2.51
2019-04-06T02:44:18.337Z,2.61
2019-04-06T02:45:18.100Z,2.71
2019-04-06T02:46:18.100Z,2.61
2019-04-06T02:47:18.080Z,2.81
2019-04-06T02:48:18.074Z,2.91
2019-04-06T02:49:18.063Z,2.81
2019-04-06T02:50:18.059Z,2.81
2019-04-06T02:51:18.055Z,2.91
2019-04-06T02:52:18.111Z,2.81
2019-04-06T02:53:18.034Z,2.91
2019-04-06T02:54:18.020Z,2.61
2019-04-06T02:55:18.024Z,2.61
2019-04-06T02:56:18.020Z,2.51
2019-04-06T02:57:18.002Z,2.42
2019-04-06T02:58:17.998Z,2.51
2019-04-06T02:59:17.999Z,2.33
2019-04-06T03:00:17.991Z,2.33
2019-04-06T03:01:17.975Z,2.33
2019-04-06T03:02:17.967Z,2.33
2019-04-06T03:03:18.006Z,2.51
2019-04-06T03:04:17.955Z,2.51
2019-04-06T03:05:17.953Z,2.42
2019-04-06T03:06:17.951Z,2.51
2019-04-06T03:07:17.931Z,2.33
2019-04-06T03:08:17.926Z,2.42
2019-04-06T03:09:17.924Z,2.42
2019-04-06T03:10:17.964Z,2.42
2019-04-06T03:11:17.905Z,2.42
2019-04-06T03:12:17.896Z,2.42
2019-04-06T03:13:17.887Z,2.42
2019-04-06T03:14:17.886Z,2.33
2019-04-06T03:15:18.080Z,2.42
2019-04-06T03:16:17.869Z,2.42
2019-04-06T03:17:17.863Z,2.42
2019-04-06T03:18:17.851Z,2.42
2019-04-06T03:19:17.841Z,2.61
2019-04-06T03:20:17.844Z,2.51
2019-04-06T03:21:17.854Z,2.42
2019-04-06T03:22:17.824Z,2.42
2019-04-06T03:23:17.826Z,2.33
2019-04-06T03:24:17.816Z,2.61
2019-04-06T03:25:17.796Z,2.42
2019-04-06T03:26:17.799Z,2.33
2019-04-06T03:27:17.809Z,2.42
2019-04-06T03:28:17.790Z,2.42
2019-04-06T03:29:17.800Z,2.51
2019-04-06T03:30:17.941Z,2.61
2019-04-06T03:31:22.728Z,2.61
2019-04-06T03:32:17.888Z,2.51
2019-04-06T03:33:17.855Z,2.61
2019-04-06T03:34:21.593Z,2.61
2019-04-06T03:35:17.738Z,2.61
2019-04-06T03:36:17.726Z,2.71
2019-04-06T03:37:17.723Z,2.81
2019-04-06T03:38:17.708Z,2.91
2019-04-06T03:39:17.698Z,2.71
2019-04-06T03:40:17.829Z,2.71
2019-04-06T03:41:17.686Z,2.61
2019-04-06T03:42:17.675Z,2.61
2019-04-06T03:43:17.724Z,2.61
2019-04-06T03:44:17.668Z,2.71
2019-04-06T03:45:17.669Z,2.81
2019-04-06T03:46:17.654Z,2.91
2019-04-06T03:47:17.663Z,2.91
2019-04-06T03:48:17.638Z,2.81
2019-04-06T03:49:17.638Z,2.61
2019-04-06T03:50:17.627Z,2.91
2019-04-06T03:51:17.623Z,2.61
2019-04-06T03:52:17.612Z,2.91
2019-04-06T03:53:17.606Z,2.71
2019-04-06T03:54:17.613Z,2.91
2019-04-06T03:55:17.593Z,2.71
2019-04-06T03:56:17.733Z,2.91
2019-04-06T03:57:17.670Z,2.91
2019-04-06T03:58:17.567Z,2.71
2019-04-06T03:59:17.556Z,2.61
2019-04-06T04:00:17.562Z,2.71
2019-04-06T04:01:17.771Z,2.81
2019-04-06T04:02:17.597Z,2.81
2019-04-06T04:03:17.543Z,2.91
2019-04-06T04:04:17.601Z,2.81
2019-04-06T04:05:17.520Z,2.81
2019-04-06T04:06:17.512Z,2.91
2019-04-06T04:07:17.499Z,2.91
2019-04-06T04:08:17.487Z,2.81
2019-04-06T04:09:17.481Z,2.81
2019-04-06T04:10:17.487Z,2.91
2019-04-06T04:11:17.481Z,2.51
2019-04-06T04:12:17.466Z,2.61
2019-04-06T04:13:17.487Z,2.71
2019-04-06T04:14:17.455Z,2.61
2019-04-06T04:15:17.506Z,2.61
2019-04-06T04:16:17.433Z,2.61
2019-04-06T04:17:17.425Z,2.61
2019-04-06T04:18:17.425Z,2.51
2019-04-06T04:19:17.416Z,2.81
2019-04-06T04:20:17.396Z,2.71
2019-04-06T04:21:17.408Z,2.71
2019-04-06T04:22:17.392Z,3.00
2019-04-06T04:23:17.388Z,2.91
2019-04-06T04:24:17.400Z,2.61
2019-04-06T04:25:17.370Z,2.71
2019-04-06T04:26:17.371Z,2.91
2019-04-06T04:27:27.641Z,2.71
2019-04-06T04:28:17.364Z,2.61
2019-04-06T04:29:17.337Z,2.71
2019-04-06T04:30:30.768Z,2.42
2019-04-06T04:31:17.574Z,2.91
2019-04-06T04:32:17.324Z,2.81
2019-04-06T04:33:17.342Z,2.51
2019-04-06T04:34:17.469Z,2.51
2019-04-06T04:35:18.581Z,2.81
2019-04-06T04:36:17.282Z,2.81
2019-04-06T04:37:17.284Z,2.81
2019-04-06T04:38:17.317Z,2.81
2019-04-06T04:39:17.290Z,2.91
2019-04-06T04:40:17.259Z,2.91
2019-04-06T04:41:17.572Z,3.00
2019-04-06T04:42:17.242Z,3.00
2019-04-06T04:43:17.270Z,3.10
2019-04-06T04:44:17.233Z,2.91
2019-04-06T04:45:17.226Z,2.91
2019-04-06T04:46:17.216Z,2.91
2019-04-06T04:47:17.243Z,2.91
2019-04-06T04:48:17.196Z,2.91
2019-04-06T04:49:17.188Z,2.91
2019-04-06T04:50:17.198Z,2.91
2019-04-06T04:51:17.181Z,2.81
2019-04-06T04:52:17.172Z,2.91
2019-04-06T04:53:17.171Z,2.91
2019-04-06T04:54:17.148Z,2.91
2019-04-06T04:55:17.147Z,3.10
2019-04-06T04:56:17.141Z,2.91
2019-04-06T04:57:17.139Z,3.00
2019-04-06T04:58:17.135Z,2.81
2019-04-06T04:59:17.111Z,3.10
2019-04-06T05:00:17.118Z,2.81
2019-04-06T05:01:17.108Z,2.91
2019-04-06T05:02:17.101Z,3.20
2019-04-06T05:03:17.094Z,3.20
2019-04-06T05:04:17.085Z,3.20
2019-04-06T05:05:17.072Z,3.30
2019-04-06T05:06:17.078Z,3.20
2019-04-06T05:07:17.058Z,3.30
2019-04-06T05:08:17.104Z,3.30
2019-04-06T05:09:17.097Z,3.30
2019-04-06T05:10:17.044Z,3.20
2019-04-06T05:11:17.037Z,3.20
2019-04-06T05:12:17.028Z,3.20
2019-04-06T05:13:17.018Z,3.10
2019-04-06T05:14:17.007Z,3.00
2019-04-06T05:15:17.004Z,2.91
2019-04-06T05:16:16.994Z,3.00
2019-04-06T05:17:16.983Z,3.10
2019-04-06T05:18:16.984Z,3.30
2019-04-06T05:19:16.988Z,3.30
2019-04-06T05:20:16.974Z,3.20
2019-04-06T05:21:16.962Z,3.30
2019-04-06T05:22:16.948Z,3.29
2019-04-06T05:23:16.947Z,3.00
2019-04-06T05:24:16.939Z,3.30
2019-04-06T05:25:16.936Z,3.19
2019-04-06T05:26:16.933Z,3.20
2019-04-06T05:27:16.920Z,3.29
2019-04-06T05:28:16.906Z,3.20
2019-04-06T05:29:16.898Z,3.20
2019-04-06T05:30:16.895Z,3.30
2019-04-06T05:31:16.885Z,3.10
2019-04-06T05:32:16.879Z,3.20
2019-04-06T05:33:16.880Z,3.30
2019-04-06T05:34:16.901Z,3.20
2019-04-06T05:35:16.855Z,3.30
2019-04-06T05:36:16.850Z,3.10
2019-04-06T05:37:16.852Z,3.39
2019-04-06T05:38:16.844Z,3.39
2019-04-06T05:39:16.839Z,3.39
2019-04-06T05:40:16.828Z,3.58
2019-04-06T05:41:16.824Z,3.30
2019-04-06T05:42:16.886Z,3.10
2019-04-06T05:43:16.796Z,3.29
2019-04-06T05:44:16.798Z,3.10
2019-04-06T05:45:16.792Z,3.49
2019-04-06T05:46:16.853Z,3.49
2019-04-06T05:47:16.768Z,3.49
2019-04-06T05:48:16.770Z,3.58
2019-04-06T05:49:16.763Z,3.58
2019-04-06T05:50:16.760Z,3.58
2019-04-06T05:51:16.758Z,3.39
2019-04-06T05:52:16.736Z,3.68
2019-04-06T05:53:16.923Z,3.49
2019-04-06T05:54:16.787Z,3.20
2019-04-06T05:55:16.727Z,3.49
2019-04-06T05:56:16.800Z,3.20
2019-04-06T05:57:16.698Z,3.10
2019-04-06T05:58:16.699Z,3.58
2019-04-06T05:59:16.693Z,3.10
2019-04-06T06:00:16.671Z,3.30
2019-04-06T06:01:16.676Z,3.30
2019-04-06T06:02:16.664Z,3.68
2019-04-06T06:03:16.680Z,3.30
2019-04-06T06:04:16.648Z,3.30
2019-04-06T06:05:16.646Z,3.58
2019-04-06T06:06:16.633Z,3.49
2019-04-06T06:07:16.692Z,3.39
2019-04-06T06:08:16.682Z,3.39
2019-04-06T06:09:16.611Z,3.49
2019-04-06T06:10:16.609Z,3.39
2019-04-06T06:11:16.594Z,3.58
2019-04-06T06:12:16.598Z,3.20
2019-04-06T06:13:16.579Z,3.49
2019-04-06T06:14:16.571Z,3.49
2019-04-06T06:15:16.580Z,3.30
2019-04-06T06:16:16.594Z,3.49
2019-04-06T06:17:16.576Z,3.30
2019-04-06T06:18:25.651Z,3.20
2019-04-06T06:19:16.539Z,3.39
2019-04-06T06:20:16.529Z,3.39
2019-04-06T06:21:16.625Z,3.30
2019-04-06T06:22:16.518Z,3.20
2019-04-06T06:23:16.684Z,3.30
2019-04-06T06:24:16.506Z,3.30
2019-04-06T06:25:16.521Z,3.30
2019-04-06T06:26:16.495Z,3.30
2019-04-06T06:27:16.482Z,3.20
2019-04-06T06:28:16.475Z,3.30
2019-04-06T06:29:16.467Z,3.30
2019-04-06T06:30:16.571Z,3.20
2019-04-06T06:31:16.447Z,3.30
2019-04-06T06:32:16.451Z,3.20
2019-04-06T06:33:16.453Z,3.30
2019-04-06T06:34:16.436Z,3.20
2019-04-06T06:35:16.527Z,3.30
2019-04-06T06:36:16.450Z,3.20
2019-04-06T06:37:16.411Z,3.10
2019-04-06T06:38:16.408Z,3.20
2019-04-06T06:39:16.395Z,3.30
2019-04-06T06:40:16.382Z,3.10
2019-04-06T06:41:16.529Z,3.20
2019-04-06T06:42:16.391Z,3.20
2019-04-06T06:43:16.374Z,3.20
2019-04-06T06:44:16.363Z,3.20
2019-04-06T06:45:16.369Z,3.20
2019-04-06T06:46:16.345Z,3.20
2019-04-06T06:47:16.613Z,3.30
2019-04-06T06:48:16.380Z,3.39
2019-04-06T06:49:16.508Z,3.20
2019-04-06T06:50:16.459Z,3.30
2019-04-06T06:51:16.303Z,3.10
2019-04-06T06:52:16.304Z,3.20
2019-04-06T06:53:16.295Z,3.30
2019-04-06T06:54:16.286Z,3.00
2019-04-06T06:55:16.285Z,3.30
2019-04-06T06:56:16.271Z,3.20
2019-04-06T06:57:16.272Z,3.30
2019-04-06T06:58:24.645Z,3.30
2019-04-06T06:59:16.257Z,3.30
2019-04-06T07:00:16.241Z,3.30
2019-04-06T07:01:16.242Z,3.30
2019-04-06T07:02:16.235Z,3.30
2019-04-06T07:03:16.223Z,3.39
2019-04-06T07:04:16.209Z,3.30
2019-04-06T07:05:16.206Z,3.30
2019-04-06T07:06:16.207Z,3.30
2019-04-06T07:07:16.330Z,3.39
2019-04-06T07:08:16.182Z,3.30
2019-04-06T07:09:16.391Z,3.20
2019-04-06T07:10:16.170Z,3.30
2019-04-06T07:11:16.170Z,3.30
2019-04-06T07:12:16.210Z,3.30
2019-04-06T07:13:16.306Z,3.39
2019-04-06T07:14:16.187Z,3.39
2019-04-06T07:15:16.151Z,3.39
2019-04-06T07:16:16.134Z,3.30
2019-04-06T07:17:16.122Z,3.10
2019-04-06T07:18:16.290Z,3.10
2019-04-06T07:19:16.101Z,3.20
2019-04-06T07:20:16.094Z,3.20
2019-04-06T07:21:16.884Z,3.10
2019-04-06T07:22:16.092Z,3.30
2019-04-06T07:23:16.080Z,3.30
2019-04-06T07:24:16.073Z,3.20
2019-04-06T07:25:16.059Z,3.10
2019-04-06T07:26:16.056Z,3.20
2019-04-06T07:27:16.043Z,3.20
2019-04-06T07:28:16.038Z,3.20
2019-04-06T07:29:16.032Z,3.30
2019-04-06T07:30:16.033Z,3.20
2019-04-06T07:31:16.012Z,3.10
2019-04-06T07:32:16.013Z,3.30
2019-04-06T07:33:16.015Z,3.20
2019-04-06T07:34:16.085Z,3.20
2019-04-06T07:35:15.989Z,3.30
2019-04-06T07:36:15.986Z,3.30
2019-04-06T07:37:15.980Z,3.20
2019-04-06T07:38:15.965Z,3.20
2019-04-06T07:39:15.963Z,3.20
2019-04-06T07:40:15.959Z,3.30
2019-04-06T07:41:15.953Z,3.10
2019-04-06T07:42:15.947Z,3.20
2019-04-06T07:43:15.957Z,3.20
2019-04-06T07:44:15.920Z,3.20
2019-04-06T07:45:15.916Z,3.20
2019-04-06T07:46:15.907Z,3.30
2019-04-06T07:47:16.000Z,3.30
2019-04-06T07:48:15.898Z,3.30
2019-04-06T07:49:15.904Z,3.30
2019-04-06T07:50:15.882Z,3.20
2019-04-06T07:51:15.871Z,3.20
2019-04-06T07:52:15.868Z,3.30
2019-04-06T07:53:15.859Z,3.20
2019-04-06T07:54:15.857Z,3.30
2019-04-06T07:55:15.840Z,3.30
2019-04-06T07:56:15.856Z,3.30
2019-04-06T07:57:15.843Z,3.30
2019-04-06T07:58:15.937Z,3.10
2019-04-06T07:59:15.962Z,3.10
2019-04-06T08:00:16.072Z,3.20
2019-04-06T08:01:15.914Z,3.10
2019-04-06T08:02:15.802Z,3.20
2019-04-06T08:03:15.863Z,3.20
2019-04-06T08:04:15.785Z,3.20
2019-04-06T08:05:15.791Z,3.30
2019-04-06T08:06:15.767Z,3.20
2019-04-06T08:07:15.769Z,3.20
2019-04-06T08:08:15.762Z,3.10
2019-04-06T08:09:15.752Z,3.20
2019-04-06T08:10:15.935Z,3.30
2019-04-06T08:11:15.737Z,3.30
2019-04-06T08:12:15.725Z,3.30
2019-04-06T08:13:15.723Z,3.39
2019-04-06T08:14:15.964Z,3.30
2019-04-06T08:15:15.708Z,3.20
2019-04-06T08:16:15.786Z,3.10
2019-04-06T08:17:15.690Z,3.10
2019-04-06T08:18:15.761Z,3.20
2019-04-06T08:19:15.675Z,3.10
2019-04-06T08:20:16.487Z,3.10
2019-04-06T08:21:15.778Z,3.30
2019-04-06T08:22:15.647Z,3.30
2019-04-06T08:23:15.640Z,3.20
2019-04-06T08:24:15.639Z,3.30
2019-04-06T08:25:15.850Z,3.30
2019-04-06T08:26:15.627Z,3.30
2019-04-06T08:27:15.712Z,3.10
2019-04-06T08:28:15.605Z,3.10
2019-04-06T08:29:15.644Z,3.10
2019-04-06T08:30:15.600Z,3.39
2019-04-06T08:31:15.586Z,3.39
2019-04-06T08:32:15.587Z,3.39
2019-04-06T08:33:15.574Z,3.10
2019-04-06T08:34:15.740Z,3.39
2019-04-06T08:35:24.445Z,3.39
2019-04-06T08:36:15.805Z,3.39
2019-04-06T08:37:15.563Z,3.30
2019-04-06T08:38:15.538Z,3.39
2019-04-06T08:39:15.527Z,3.30
2019-04-06T08:40:15.537Z,3.49
2019-04-06T08:41:15.523Z,3.30
2019-04-06T08:42:15.507Z,3.10
2019-04-06T08:43:15.511Z,3.49
2019-04-06T08:44:15.537Z,3.49
2019-04-06T08:45:15.493Z,3.30
2019-04-06T08:46:15.484Z,3.20
2019-04-06T08:47:15.482Z,3.10
2019-04-06T08:48:15.640Z,3.30
2019-04-06T08:49:15.556Z,3.30
2019-04-06T08:50:15.454Z,3.49
2019-04-06T08:51:15.515Z,3.58
2019-04-06T08:52:15.438Z,3.20
2019-04-06T08:53:15.435Z,3.49
2019-04-06T08:54:15.422Z,3.49
2019-04-06T08:55:15.424Z,3.49
2019-04-06T08:56:15.530Z,3.20
2019-04-06T08:57:15.409Z,3.49
2019-04-06T08:58:15.441Z,3.58
2019-04-06T08:59:15.382Z,3.39
2019-04-06T09:00:15.384Z,3.39
2019-04-06T09:01:15.392Z,3.68
2019-04-06T09:02:15.413Z,3.58
2019-04-06T09:03:15.371Z,3.58
2019-04-06T09:04:15.473Z,3.49
2019-04-06T09:05:15.345Z,3.58
2019-04-06T09:06:15.340Z,3.49
2019-04-06T09:07:15.327Z,3.49
2019-04-06T09:08:15.432Z,3.68
2019-04-06T09:09:15.325Z,3.58
2019-04-06T09:10:15.306Z,3.68
2019-04-06T09:11:15.302Z,3.49
2019-04-06T09:12:15.310Z,3.49
2019-04-06T09:13:15.349Z,3.49
2019-04-06T09:14:15.285Z,3.49
2019-04-06T09:15:15.269Z,3.68
2019-04-06T09:16:15.538Z,3.58
2019-04-06T09:17:15.433Z,3.68
2019-04-06T09:18:15.253Z,3.68
2019-04-06T09:19:15.256Z,3.49
2019-04-06T09:20:15.253Z,3.58
2019-04-06T09:21:15.225Z,3.58
2019-04-06T09:22:15.224Z,3.49
2019-04-06T09:23:15.351Z,3.58
2019-04-06T09:24:15.427Z,3.68
2019-04-06T09:25:15.201Z,3.68
2019-04-06T09:26:15.211Z,3.58
2019-04-06T09:27:15.192Z,3.78
2019-04-06T09:28:15.184Z,3.68
2019-04-06T09:29:23.077Z,3.68
2019-04-06T09:30:15.171Z,3.68
2019-04-06T09:31:15.159Z,3.68
2019-04-06T09:32:15.214Z,3.58
2019-04-06T09:33:15.143Z,3.68
2019-04-06T09:34:15.138Z,3.68
2019-04-06T09:35:15.140Z,3.68
2019-04-06T09:36:15.129Z,3.68
2019-04-06T09:37:15.122Z,3.68
2019-04-06T09:38:15.265Z,3.68
2019-04-06T09:39:15.096Z,3.68
2019-04-06T09:40:15.158Z,3.30
2019-04-06T09:41:15.181Z,3.68
2019-04-06T09:42:15.081Z,3.78
2019-04-06T09:43:15.191Z,3.68
2019-04-06T09:44:15.076Z,3.78
2019-04-06T09:45:15.058Z,3.68
2019-04-06T09:46:15.050Z,3.68
2019-04-06T09:47:15.050Z,3.68
2019-04-06T09:48:15.041Z,3.49
2019-04-06T09:49:15.037Z,3.49
2019-04-06T09:50:15.028Z,3.68
2019-04-06T09:51:15.014Z,3.68
2019-04-06T09:52:15.019Z,3.00
2019-04-06T09:53:15.212Z,3.58
2019-04-06T09:54:14.989Z,3.68
2019-04-06T09:55:14.992Z,3.68
2019-04-06T09:56:14.983Z,3.68
2019-04-06T09:57:14.981Z,3.68
2019-04-06T09:58:14.966Z,3.68
2019-04-06T09:59:15.181Z,3.49
2019-04-06T10:00:15.136Z,3.78
2019-04-06T10:01:14.945Z,3.68
2019-04-06T10:02:14.957Z,3.78
2019-04-06T10:03:14.935Z,3.78
2019-04-06T10:04:14.924Z,3.68
2019-04-06T10:05:15.076Z,3.68
2019-04-06T10:06:14.918Z,3.68
2019-04-06T10:07:14.898Z,3.68
2019-04-06T10:08:14.898Z,3.78
2019-04-06T10:09:14.960Z,3.58
2019-04-06T10:10:14.889Z,3.78
2019-04-06T10:11:14.871Z,3.49
2019-04-06T10:12:14.868Z,3.49
2019-04-06T10:13:14.871Z,3.78
2019-04-06T10:14:15.090Z,3.58
2019-04-06T10:15:15.034Z,3.78
2019-04-06T10:16:14.848Z,3.78
2019-04-06T10:17:14.831Z,3.58
2019-04-06T10:18:15.031Z,3.58
2019-04-06T10:19:14.869Z,3.68
2019-04-06T10:20:14.811Z,3.78
2019-04-06T10:21:14.795Z,3.58
2019-04-06T10:22:14.793Z,3.58
2019-04-06T10:23:14.790Z,3.78
2019-04-06T10:24:14.781Z,3.78
2019-04-06T10:25:14.772Z,3.58
2019-04-06T10:26:14.773Z,3.10
2019-04-06T10:27:14.755Z,3.78
2019-04-06T10:28:14.806Z,3.49
2019-04-06T10:29:14.766Z,3.58
2019-04-06T10:30:14.742Z,3.58
2019-04-06T10:31:14.855Z,3.58
2019-04-06T10:32:14.740Z,3.58
2019-04-06T10:33:14.713Z,3.78
2019-04-06T10:34:14.703Z,3.58
2019-04-06T10:35:14.703Z,3.58
2019-04-06T10:36:14.715Z,3.58
2019-04-06T10:37:14.687Z,3.78
2019-04-06T10:38:16.293Z,3.49
2019-04-06T10:39:14.832Z,3.58
2019-04-06T10:40:14.665Z,3.58
2019-04-06T10:41:14.657Z,3.58
2019-04-06T10:42:14.670Z,3.68
2019-04-06T10:43:14.640Z,3.49
2019-04-06T10:44:14.638Z,3.20
2019-04-06T10:45:14.636Z,3.78
2019-04-06T10:46:14.860Z,3.58
2019-04-06T10:47:14.616Z,3.58
2019-04-06T10:48:14.614Z,3.58
2019-04-06T10:49:14.609Z,3.78
2019-04-06T10:50:14.603Z,3.78
2019-04-06T10:51:14.582Z,3.68
2019-04-06T10:52:14.585Z,3.30
2019-04-06T10:53:14.582Z,3.49
2019-04-06T10:54:14.566Z,3.78
2019-04-06T10:55:14.556Z,3.30
2019-04-06T10:56:14.551Z,3.58
2019-04-06T10:57:14.541Z,3.49
2019-04-06T10:58:14.545Z,3.58
2019-04-06T10:59:14.524Z,3.58
2019-04-06T11:00:14.529Z,3.58
2019-04-06T11:01:14.519Z,3.58
2019-04-06T11:02:14.747Z,3.78
2019-04-06T11:03:14.517Z,3.58
2019-04-06T11:04:14.501Z,3.58
2019-04-06T11:05:14.483Z,3.49
2019-04-06T11:06:14.483Z,3.58
2019-04-06T11:07:14.477Z,3.58
2019-04-06T11:08:14.468Z,3.78
2019-04-06T11:09:14.527Z,3.20
2019-04-06T11:10:14.453Z,3.68
2019-04-06T11:11:17.009Z,3.58
2019-04-06T11:12:14.465Z,3.58
2019-04-06T11:13:14.536Z,3.58
2019-04-06T11:14:14.489Z,3.58
2019-04-06T11:15:14.422Z,3.68
2019-04-06T11:16:14.637Z,3.78
2019-04-06T11:17:14.408Z,3.78
2019-04-06T11:18:14.397Z,3.58
2019-04-06T11:19:14.383Z,3.20
2019-04-06T11:20:14.383Z,3.58
2019-04-06T11:21:14.424Z,3.58
2019-04-06T11:22:16.857Z,3.68
2019-04-06T11:23:14.363Z,3.78
2019-04-06T11:24:14.346Z,3.78
2019-04-06T11:25:14.348Z,3.58
2019-04-06T11:26:14.337Z,3.58
2019-04-06T11:27:14.329Z,3.49
2019-04-06T11:28:14.316Z,3.78
2019-04-06T11:29:14.324Z,3.68
2019-04-06T11:30:15.405Z,3.68
2019-04-06T11:31:14.314Z,3.68
2019-04-06T11:32:14.475Z,3.68
2019-04-06T11:33:14.286Z,3.68
2019-04-06T11:34:14.280Z,3.68
2019-04-06T11:35:14.272Z,3.49
2019-04-06T11:36:14.520Z,3.78
2019-04-06T11:37:14.253Z,3.68
2019-04-06T11:38:14.270Z,3.20
2019-04-06T11:39:14.247Z,3.49
2019-04-06T11:40:14.232Z,3.68
2019-04-06T11:41:14.402Z,3.68
2019-04-06T11:42:14.220Z,3.49
2019-04-06T11:43:14.223Z,3.68
2019-04-06T11:44:14.213Z,3.68
2019-04-06T11:45:14.297Z,3.68
2019-04-06T11:46:14.191Z,3.68
2019-04-06T11:47:14.192Z,3.68
2019-04-06T11:48:14.180Z,3.68
2019-04-06T11:49:14.168Z,3.68
2019-04-06T11:50:14.168Z,3.68
2019-04-06T11:51:14.208Z,3.68
2019-04-06T11:52:14.147Z,3.68
2019-04-06T11:53:14.146Z,3.68
2019-04-06T11:54:14.140Z,3.68
2019-04-06T11:55:14.134Z,3.68
2019-04-06T11:56:14.114Z,3.68
2019-04-06T11:57:14.274Z,3.49
2019-04-06T11:58:14.106Z,3.68
2019-04-06T11:59:14.311Z,3.58
2019-04-06T12:00:24.491Z,3.49
2019-04-06T12:01:14.082Z,3.68
2019-04-06T12:02:14.084Z,3.68
2019-04-06T12:03:14.374Z,3.49
2019-04-06T12:04:14.060Z,3.68
2019-04-06T12:05:14.058Z,3.68
2019-04-06T12:06:14.354Z,3.49
2019-04-06T12:07:14.039Z,3.58
2019-04-06T12:08:14.042Z,3.49
2019-04-06T12:09:14.025Z,3.49
2019-04-06T12:10:14.022Z,3.68
2019-04-06T12:11:14.196Z,3.49
2019-04-06T12:12:14.009Z,3.39
2019-04-06T12:13:13.998Z,3.68
2019-04-06T12:14:14.221Z,3.30
2019-04-06T12:15:13.981Z,3.39
2019-04-06T12:16:13.978Z,3.39
2019-04-06T12:17:14.318Z,3.39
2019-04-06T12:18:14.290Z,3.49
2019-04-06T12:19:14.081Z,3.49
2019-04-06T12:20:14.106Z,3.39
2019-04-06T12:21:13.943Z,3.68
2019-04-06T12:22:13.933Z,2.91
2019-04-06T12:23:14.094Z,3.68
2019-04-06T12:24:13.918Z,3.68
2019-04-06T12:25:13.907Z,3.49
2019-04-06T12:26:13.911Z,3.30
2019-04-06T12:27:14.157Z,3.49
2019-04-06T12:28:13.888Z,3.68
2019-04-06T12:29:16.202Z,3.49
2019-04-06T12:30:14.150Z,3.49
2019-04-06T12:31:14.098Z,3.58
2019-04-06T12:32:13.861Z,3.68
2019-04-06T12:33:13.859Z,3.68
2019-04-06T12:34:13.850Z,3.58
2019-04-06T12:35:14.145Z,3.68
2019-04-06T12:36:13.909Z,3.58
2019-04-06T12:37:13.825Z,3.68
2019-04-06T12:38:14.114Z,3.68
2019-04-06T12:39:14.131Z,3.68
2019-04-06T12:40:13.808Z,3.68
2019-04-06T12:41:13.790Z,3.68
2019-04-06T12:42:14.035Z,3.58
2019-04-06T12:43:13.777Z,3.68
2019-04-06T12:44:13.775Z,3.68
2019-04-06T12:45:13.850Z,3.49
2019-04-06T12:46:13.768Z,3.68
2019-04-06T12:47:13.843Z,3.68
2019-04-06T12:48:13.748Z,3.78
2019-04-06T12:49:13.749Z,3.68
2019-04-06T12:50:13.735Z,3.58
2019-04-06T12:51:13.863Z,3.49
2019-04-06T12:52:13.710Z,3.58
2019-04-06T12:53:13.716Z,3.58
2019-04-06T12:54:13.818Z,3.58
2019-04-06T12:55:13.839Z,3.58
2019-04-06T12:56:13.714Z,3.58
2019-04-06T12:57:13.682Z,3.58
2019-04-06T12:58:13.678Z,3.49
2019-04-06T12:59:13.661Z,3.49
2019-04-06T13:00:13.693Z,3.49
2019-04-06T13:01:13.660Z,3.49
2019-04-06T13:02:13.645Z,3.49
2019-04-06T13:03:13.981Z,3.39
2019-04-06T13:04:13.629Z,3.39
2019-04-06T13:05:13.642Z,3.49
2019-04-06T13:06:13.902Z,3.49
2019-04-06T13:07:13.618Z,3.39
2019-04-06T13:08:13.603Z,3.29
2019-04-06T13:09:13.598Z,3.39
2019-04-06T13:10:13.591Z,3.39
2019-04-06T13:11:13.579Z,3.49
2019-04-06T13:12:13.576Z,3.39
2019-04-06T13:13:13.568Z,3.78
2019-04-06T13:14:13.560Z,3.68
2019-04-06T13:15:13.546Z,3.78
2019-04-06T13:16:13.538Z,3.88
2019-04-06T13:17:13.532Z,3.78
2019-04-06T13:18:13.839Z,3.68